Time;durP1;ratioP1;P1;durP2;ratioP2;P2;SDS_P1;SDS_P2;PMS_P1;PMS_P2;Temp;Humidity;BMP_temperature;BMP_pressure;BME280_temperature;BME280_humidity;BME280_pressure;Samples;Min_cycle;Max_cycle;Signal;HPM_P1;HPM_P2
2021/08/31 00:00:13;;;;;;;;;;;;;;;12.97;95.63;97206.03;30001;982;1884;-61
2021/08/31 00:00:44;;;;;;;;;;;;;;;12.96;95.49;97206.31;30001;982;1880;-63
2021/08/31 00:01:15;;;;;;;;;;;;;;;12.96;95.83;97206.31;30001;982;1884;-63
2021/08/31 00:01:46;;;;;;;;;;;;;;;12.97;95.53;97206.03;30001;982;1880;-66
2021/08/31 00:02:17;;;;;;;;;;;;;;;12.97;95.67;97210.66;30001;982;1884;-62
2021/08/31 00:02:47;;;;;;;;;;;;;;;12.96;95.80;97206.31;30001;982;1862;-64
2021/08/31 00:03:18;;;;;;;;;;;;;;;12.95;95.53;97204.69;30001;982;1863;-63
2021/08/31 00:03:49;;;;;;;;;;;;;;;12.95;95.82;97207.44;30001;983;1879;-54
2021/08/31 00:04:20;;;;;;;;;;;;;;;12.95;95.81;97207.44;30001;983;1884;-65
2021/08/31 00:04:51;;;;;;;;;;;;;;;12.96;95.59;97206.31;30001;983;1879;-66
2021/08/31 00:05:21;;;;;;;;;;;;;;;12.97;95.88;97203.28;30001;983;1884;-63
2021/08/31 00:05:53;;;;;;;;;;;;;;;12.98;95.71;97206.81;30001;983;1879;-63
2021/08/31 00:06:23;;;;;;;;;;;;;;;12.96;95.60;97207.12;30001;983;1884;-63
2021/08/31 00:06:54;;;;;;;;;;;;;;;12.95;95.62;97210.97;30001;965;1897;-63
2021/08/31 00:07:25;;;;;;;;;;;;;;;12.94;95.50;97203.91;30001;983;1884;-63
2021/08/31 00:07:56;;;;;;;;;;;;;;;12.92;95.49;97206.09;30001;982;1880;-64
2021/08/31 00:08:27;;;;;;;;;;;;;;;12.94;95.80;97213.97;30001;982;1867;-63
2021/08/31 00:08:57;;;;;;;;;;;;;;;12.95;95.91;97210.16;30001;982;1876;-63
2021/08/31 00:09:28;;;;;;;;;;;;;;;12.93;95.89;97206.91;30001;982;1884;-64
2021/08/31 00:10:02;;;;;;;;;;;;;;;12.91;96.02;97209.94;30001;982;1880;-63
2021/08/31 00:10:34;;;;;;;;;;;;;;;12.92;95.73;97211.56;30001;983;1883;-63
2021/08/31 00:11:05;;;;;;;;;;;;;;;12.92;96.04;97216.19;30001;983;1879;-62
2021/08/31 00:11:36;;;;;;;;;;;;;;;12.90;95.77;97216.50;30001;983;1884;-64
2021/08/31 00:12:07;;;;;;;;;;;;;;;12.91;96.11;97209.13;30001;983;1879;-63
2021/08/31 00:12:38;;;;;;;;;;;;;;;12.90;95.90;97213.78;30001;983;1884;-63
2021/08/31 00:13:09;;;;;;;;;;;;;;;12.90;96.31;97212.97;30001;983;1862;-63
2021/08/31 00:13:40;;;;;;;;;;;;;;;12.89;96.06;97219.50;30001;983;1880;-64
2021/08/31 00:14:12;;;;;;;;;;;;;;;12.89;96.05;97222.25;30001;983;1880;-63
2021/08/31 00:14:43;;;;;;;;;;;;;;;12.89;96.41;97222.25;30001;983;1884;-62
2021/08/31 00:15:14;;;;;;;;;;;;;;;12.87;96.43;97211.63;30001;985;1880;-63
2021/08/31 00:15:44;;;;;;;;;;;;;;;12.87;96.46;97216.28;30001;982;1884;-62
2021/08/31 00:16:15;;;;;;;;;;;;;;;12.87;96.64;97219.00;30001;982;1880;-63
2021/08/31 00:16:46;;;;;;;;;;;;;;;12.87;96.45;97216.28;30001;982;1884;-63
2021/08/31 00:17:17;;;;;;;;;;;;;;;12.88;96.47;97217.91;30001;982;1880;-64
2021/08/31 00:17:48;;;;;;;;;;;;;;;12.88;96.55;97210.53;30001;983;1883;-62
2021/08/31 00:18:19;;;;;;;;;;;;;;;12.89;96.62;97220.31;30001;983;1862;-63
2021/08/31 00:18:50;;;;;;;;;;;;;;;12.90;96.50;97215.69;30001;983;1879;-63
2021/08/31 00:19:21;;;;;;;;;;;;;;;12.90;96.70;97212.97;30001;983;1879;-53
2021/08/31 00:19:52;;;;;;;;;;;;;;;12.90;96.43;97212.97;30001;983;1884;-62
2021/08/31 00:20:23;;;;;;;;;;;;;;;12.89;96.52;97208.62;30001;983;1879;-62
2021/08/31 00:20:53;;;;;;;;;;;;;;;12.90;96.39;97212.97;30001;983;1884;-62
2021/08/31 00:21:24;;;;;;;;;;;;;;;12.89;96.62;97203.19;30001;983;1880;-63
2021/08/31 00:21:55;;;;;;;;;;;;;;;12.90;96.65;97207.50;30001;983;1884;-63
2021/08/31 00:22:26;;;;;;;;;;;;;;;12.90;96.48;97215.69;30001;983;1880;-63
2021/08/31 00:22:57;;;;;;;;;;;;;;;12.91;96.37;97214.56;30001;982;1884;-63
2021/08/31 00:23:27;;;;;;;;;;;;;;;12.92;96.47;97216.19;30001;982;1862;-62
2021/08/31 00:23:58;;;;;;;;;;;;;;;12.91;96.74;97215.38;30001;972;1862;-62
2021/08/31 00:24:29;;;;;;;;;;;;;;;12.90;96.43;97221.94;30001;982;1880;-62
2021/08/31 00:25:00;;;;;;;;;;;;;;;12.90;96.40;97215.69;30001;982;1884;-65
2021/08/31 00:25:31;;;;;;;;;;;;;;;12.89;96.40;97212.16;30001;983;1879;-65
2021/08/31 00:26:02;;;;;;;;;;;;;;;12.93;96.35;97212.37;30001;983;1883;-63
2021/08/31 00:26:33;;;;;;;;;;;;;;;12.92;96.40;97216.19;30001;983;1880;-65
2021/08/31 00:27:04;;;;;;;;;;;;;;;12.91;96.27;97215.38;30001;983;1884;-63
2021/08/31 00:27:36;;;;;;;;;;;;;;;12.90;96.48;97208.31;30001;983;1879;-63
2021/08/31 00:28:07;;;;;;;;;;;;;;;12.91;96.14;97212.66;30001;983;1866;-62
2021/08/31 00:28:37;;;;;;;;;;;;;;;12.91;96.28;97214.56;30001;983;1875;-62
2021/08/31 00:29:08;;;;;;;;;;;;;;;12.89;96.45;97212.16;30001;983;1884;-63
2021/08/31 00:29:39;;;;;;;;;;;;;;;12.89;96.72;97212.16;30001;983;1880;-63
2021/08/31 00:30:11;;;;;;;;;;;;;;;12.89;96.46;97211.34;30001;983;1867;-62
2021/08/31 00:30:42;;;;;;;;;;;;;;;12.88;96.58;97218.72;30001;982;1875;-53
2021/08/31 00:31:13;;;;;;;;;;;;;;;12.87;96.61;97211.63;30001;982;1884;-63
2021/08/31 00:31:43;;;;;;;;;;;;;;;12.88;96.77;97212.44;30001;982;1880;-63
2021/08/31 00:32:14;;;;;;;;;;;;;;;12.86;96.62;97206.50;30001;982;1884;-62
2021/08/31 00:32:45;;;;;;;;;;;;;;;12.87;96.66;97222.53;30001;982;1880;-65
2021/08/31 00:33:16;;;;;;;;;;;;;;;12.89;97.04;97219.50;30001;983;1866;-66
2021/08/31 00:33:47;;;;;;;;;;;;;;;12.91;96.89;97209.94;30001;983;1875;-66
2021/08/31 00:34:18;;;;;;;;;;;;;;;12.91;96.53;97212.66;30001;983;1884;-62
2021/08/31 00:34:49;;;;;;;;;;;;;;;12.92;96.74;97217.00;30001;983;1799;-62
2021/08/31 00:35:19;;;;;;;;;;;;;;;12.90;96.50;97215.69;30001;983;1884;-64
2021/08/31 00:35:50;;;;;;;;;;;;;;;12.91;96.62;97209.13;30001;983;1879;-68
2021/08/31 00:36:21;;;;;;;;;;;;;;;12.92;96.40;97210.75;30001;983;1884;-67
2021/08/31 00:36:52;;;;;;;;;;;;;;;12.93;96.52;97212.37;30001;983;1880;-62
2021/08/31 00:37:23;;;;;;;;;;;;;;;12.93;96.17;97212.37;30001;983;1884;-62
2021/08/31 00:37:54;;;;;;;;;;;;;;;12.92;96.32;97210.75;30001;960;1902;-60
2021/08/31 00:38:24;;;;;;;;;;;;;;;12.92;96.38;97208.03;30001;982;1867;-53
2021/08/31 00:38:57;;;;;;;;;;;;;;;12.92;96.11;97216.19;30001;982;1876;-69
2021/08/31 00:39:28;;;;;;;;;;;;;;;12.92;96.10;97217.00;30001;982;1884;-65
2021/08/31 00:39:59;;;;;;;;;;;;;;;12.93;96.38;97215.91;30001;982;1880;-69
2021/08/31 00:40:30;;;;;;;;;;;;;;;12.93;95.98;97213.19;30001;983;1866;-66
2021/08/31 00:41:01;;;;;;;;;;;;;;;12.95;95.96;97215.59;30001;983;1875;-63
2021/08/31 00:41:32;;;;;;;;;;;;;;;12.95;96.13;97212.88;30001;983;1866;-63
2021/08/31 00:42:03;;;;;;;;;;;;;;;12.94;95.76;97219.44;30001;983;1875;-63
2021/08/31 00:42:34;;;;;;;;;;;;;;;12.93;95.95;97206.91;30001;983;1884;-64
2021/08/31 00:43:06;;;;;;;;;;;;;;;12.94;95.82;97213.97;30001;983;1879;-66
2021/08/31 00:43:47;;;;;;;;;;;;;;;12.94;95.87;97213.97;30001;962;1908;-63
2021/08/31 00:44:19;;;;;;;;;;;;;;;12.95;96.03;97210.16;30001;983;1880;-64
2021/08/31 00:44:50;;;;;;;;;;;;;;;12.96;96.03;97222.66;30001;982;1884;-63
2021/08/31 00:45:21;;;;;;;;;;;;;;;12.95;96.05;97215.59;30001;982;1862;-65
2021/08/31 00:45:54;;;;;;;;;;;;;;;12.95;96.09;97221.03;30001;982;1880;-64
2021/08/31 00:46:25;;;;;;;;;;;;;;;12.94;96.27;97216.72;30001;982;1862;-63
2021/08/31 00:46:57;;;;;;;;;;;;;;;12.94;95.93;97219.44;30001;982;1880;-62
2021/08/31 00:47:28;;;;;;;;;;;;;;;12.94;96.04;97227.59;30001;982;1862;-62
2021/08/31 00:47:59;;;;;;;;;;;;;;;12.93;96.25;97220.53;30001;983;1879;-62
2021/08/31 00:48:29;;;;;;;;;;;;;;;12.92;96.27;97224.38;30001;983;1879;-64
2021/08/31 00:49:00;;;;;;;;;;;;;;;12.91;96.09;97220.03;30001;983;1884;-53
2021/08/31 00:49:32;;;;;;;;;;;;;;;12.90;96.32;97221.94;30001;983;1879;-63
2021/08/31 00:50:03;;;;;;;;;;;;;;;12.89;96.18;97222.25;30001;983;1884;-63
2021/08/31 00:50:34;;;;;;;;;;;;;;;12.89;96.59;97224.97;30001;983;1880;-62
2021/08/31 00:51:05;;;;;;;;;;;;;;;12.87;96.38;97219.00;30001;983;1884;-63
2021/08/31 00:51:37;;;;;;;;;;;;;;;12.87;96.53;97219.00;30001;983;1880;-53
2021/08/31 00:52:08;;;;;;;;;;;;;;;12.86;96.51;97222.84;30001;982;1884;-62
2021/08/31 00:52:40;;;;;;;;;;;;;;;12.87;96.58;97219.00;30001;982;1862;-62
2021/08/31 00:53:11;;;;;;;;;;;;;;;12.86;96.44;97220.13;30001;982;1880;-62
2021/08/31 00:53:42;;;;;;;;;;;;;;;12.87;96.85;97221.72;30001;982;1880;-63
2021/08/31 00:54:13;;;;;;;;;;;;;;;12.87;96.54;97219.00;30001;982;1884;-63
2021/08/31 00:54:44;;;;;;;;;;;;;;;12.86;97.08;97218.19;30001;982;1880;-61
2021/08/31 00:55:15;;;;;;;;;;;;;;;12.85;96.88;97216.59;30001;982;1884;-63
2021/08/31 00:55:46;;;;;;;;;;;;;;;12.85;97.22;97221.22;30001;983;1861;-63
2021/08/31 00:56:17;;;;;;;;;;;;;;;12.84;96.88;97219.59;30001;983;1791;-63
2021/08/31 00:56:49;;;;;;;;;;;;;;;12.84;97.10;97219.59;30001;983;1879;-61
2021/08/31 00:57:20;;;;;;;;;;;;;;;12.84;96.89;97217.69;30001;983;1884;-62
2021/08/31 00:57:51;;;;;;;;;;;;;;;12.83;97.06;97226.16;30001;983;1862;-67
2021/08/31 00:58:22;;;;;;;;;;;;;;;12.84;97.02;97230.50;30001;983;1880;-65
2021/08/31 00:58:54;;;;;;;;;;;;;;;12.84;97.16;97225.03;30001;983;1880;-63
2021/08/31 00:59:25;;;;;;;;;;;;;;;12.84;96.97;97225.03;30001;983;1884;-63
2021/08/31 00:59:56;;;;;;;;;;;;;;;12.83;97.08;97228.88;30001;982;1880;-63
2021/08/31 01:00:27;;;;;;;;;;;;;;;12.83;97.06;97229.69;30001;982;1867;-62
2021/08/31 01:00:59;;;;;;;;;;;;;;;12.83;97.40;97231.59;30001;982;1876;-62
2021/08/31 01:01:29;;;;;;;;;;;;;;;12.82;97.37;97232.72;30001;982;1884;-62
2021/08/31 01:02:01;;;;;;;;;;;;;;;12.81;97.48;97231.94;30001;982;1880;-63
2021/08/31 01:02:31;;;;;;;;;;;;;;;12.81;97.09;97231.12;30001;982;1884;-65
2021/08/31 01:03:03;;;;;;;;;;;;;;;12.81;97.36;97231.12;30001;983;1879;-63
2021/08/31 01:03:33;;;;;;;;;;;;;;;12.82;97.25;97228.06;30001;983;1884;-64
2021/08/31 01:04:05;;;;;;;;;;;;;;;12.81;97.19;97225.66;30001;983;1879;-62
2021/08/31 01:04:35;;;;;;;;;;;;;;;12.81;97.42;97231.12;30001;983;1884;-54
2021/08/31 01:05:07;;;;;;;;;;;;;;;12.81;97.63;97231.12;30001;983;1879;-62
2021/08/31 01:05:38;;;;;;;;;;;;;;;12.81;97.22;97231.12;30001;986;1854;-63
2021/08/31 01:06:09;;;;;;;;;;;;;;;12.81;97.40;97228.41;30001;983;1875;-63
2021/08/31 01:06:40;;;;;;;;;;;;;;;12.82;97.37;97235.47;30001;983;1858;-63
2021/08/31 01:07:11;;;;;;;;;;;;;;;12.83;97.44;97228.88;30001;982;1875;-63
2021/08/31 01:07:42;;;;;;;;;;;;;;;12.81;97.34;97229.19;30001;982;1875;-64
2021/08/31 01:08:12;;;;;;;;;;;;;;;12.82;97.54;97232.72;30001;982;1880;-63
2021/08/31 01:08:43;;;;;;;;;;;;;;;12.82;97.41;97233.50;30001;982;1876;-63
2021/08/31 01:09:14;;;;;;;;;;;;;;;12.81;97.48;97236.56;30001;982;1880;-53
2021/08/31 01:09:47;;;;;;;;;;;;;;;12.82;97.34;97235.47;30001;982;1876;-65
2021/08/31 01:10:20;;;;;;;;;;;;;;;12.81;97.63;97236.56;30001;982;1880;-63
2021/08/31 01:10:52;;;;;;;;;;;;;;;12.80;97.63;97230.31;30001;983;1857;-63
2021/08/31 01:11:23;;;;;;;;;;;;;;;12.80;97.70;97229.50;30001;983;1875;-62
2021/08/31 01:11:54;;;;;;;;;;;;;;;12.80;97.55;97230.31;30001;983;1875;-63
2021/08/31 01:12:27;;;;;;;;;;;;;;;12.80;97.79;97234.94;30001;983;1879;-67
2021/08/31 01:12:58;;;;;;;;;;;;;;;12.83;97.61;97239.78;30001;983;1857;-67
2021/08/31 01:13:32;;;;;;;;;;;;;;;12.84;97.46;97233.22;30001;983;1875;-64
2021/08/31 01:14:04;;;;;;;;;;;;;;;12.84;97.36;97230.50;30001;983;1875;-65
2021/08/31 01:14:35;;;;;;;;;;;;;;;12.87;97.38;97229.91;30001;983;1880;-66
2021/08/31 01:15:06;;;;;;;;;;;;;;;12.87;97.21;97236.16;30001;982;1875;-65
2021/08/31 01:15:37;;;;;;;;;;;;;;;12.88;97.01;97231.50;30001;982;1880;-62
2021/08/31 01:16:08;;;;;;;;;;;;;;;12.86;97.03;97231.00;30001;982;1876;-63
2021/08/31 01:16:39;;;;;;;;;;;;;;;12.85;97.20;97232.91;30001;982;1862;-62
2021/08/31 01:17:10;;;;;;;;;;;;;;;12.85;97.00;97237.56;30001;982;1871;-63
2021/08/31 01:17:41;;;;;;;;;;;;;;;12.84;96.88;97235.94;30001;983;1879;-63
2021/08/31 01:18:16;;;;;;;;;;;;;;;12.83;96.96;97234.31;30001;983;1875;-62
2021/08/31 01:18:47;;;;;;;;;;;;;;;12.84;97.22;97230.50;30001;983;1879;-63
2021/08/31 01:19:23;;;;;;;;;;;;;;;12.83;96.90;97229.69;30001;983;1798;-62
2021/08/31 01:19:54;;;;;;;;;;;;;;;12.84;97.11;97241.37;30001;983;1879;-63
2021/08/31 01:20:29;;;;;;;;;;;;;;;12.83;96.99;97228.88;30001;983;1875;-62
2021/08/31 01:21:01;;;;;;;;;;;;;;;12.83;97.39;97234.31;30001;983;1880;-63
2021/08/31 01:21:33;;;;;;;;;;;;;;;12.83;97.24;97228.88;30001;983;1875;-62
2021/08/31 01:22:05;;;;;;;;;;;;;;;12.84;97.32;97235.94;30001;983;1862;-64
2021/08/31 01:22:36;;;;;;;;;;;;;;;12.86;96.95;97231.00;30001;982;1871;-64
2021/08/31 01:23:07;;;;;;;;;;;;;;;12.85;97.21;97232.91;30001;982;1880;-63
2021/08/31 01:23:38;;;;;;;;;;;;;;;12.84;96.88;97234.03;30001;982;1876;-53
2021/08/31 01:24:09;;;;;;;;;;;;;;;12.84;97.22;97235.94;30001;982;1880;-54
2021/08/31 01:24:43;;;;;;;;;;;;;;;12.83;97.15;97229.69;30001;982;1876;-61
2021/08/31 01:25:14;;;;;;;;;;;;;;;12.84;96.87;97233.22;30001;983;1862;-62
2021/08/31 01:25:45;;;;;;;;;;;;;;;12.83;97.04;97234.31;30001;983;1871;-67
2021/08/31 01:26:16;;;;;;;;;;;;;;;12.85;97.04;97232.91;30001;983;1879;-63
2021/08/31 01:26:49;;;;;;;;;;;;;;;12.86;96.95;97236.44;30001;983;1875;-63
2021/08/31 01:27:21;;;;;;;;;;;;;;;12.84;96.86;97236.75;30001;983;1879;-62
2021/08/31 01:27:51;;;;;;;;;;;;;;;12.85;96.75;97232.91;30001;983;1875;-63
2021/08/31 01:28:27;;;;;;;;;;;;;;;12.84;96.80;97235.94;30001;983;1880;-63
2021/08/31 01:28:58;;;;;;;;;;;;;;;12.85;96.96;97237.56;30001;983;1875;-66
2021/08/31 01:29:30;;;;;;;;;;;;;;;12.86;96.91;97228.28;30001;983;1880;-62
2021/08/31 01:30:01;;;;;;;;;;;;;;;12.86;96.56;97229.09;30001;982;1875;-67
2021/08/31 01:30:32;;;;;;;;;;;;;;;12.87;96.41;97229.91;30001;982;1862;-63
2021/08/31 01:31:04;;;;;;;;;;;;;;;12.87;96.55;97241.59;30001;982;1871;-54
2021/08/31 01:31:35;;;;;;;;;;;;;;;12.86;96.83;97233.72;30001;982;1880;-62
2021/08/31 01:32:06;;;;;;;;;;;;;;;12.86;96.62;97245.44;30001;982;1876;-66
2021/08/31 01:32:37;;;;;;;;;;;;;;;12.86;96.58;97244.63;30001;983;1879;-64
2021/08/31 01:33:09;;;;;;;;;;;;;;;12.84;96.76;97234.03;30001;983;1875;-64
2021/08/31 01:33:40;;;;;;;;;;;;;;;12.86;96.79;97245.44;30001;983;1879;-65
2021/08/31 01:34:11;;;;;;;;;;;;;;;12.87;96.61;97240.78;30001;983;1875;-62
2021/08/31 01:34:42;;;;;;;;;;;;;;;12.86;96.55;97233.72;30001;983;1879;-63
2021/08/31 01:35:12;;;;;;;;;;;;;;;12.86;96.98;97239.19;30001;983;1875;-62
2021/08/31 01:35:44;;;;;;;;;;;;;;;12.86;96.65;97250.06;30001;983;1862;-69
2021/08/31 01:36:19;;;;;;;;;;;;;;;12.92;96.91;97229.81;30001;983;1871;-68
2021/08/31 01:36:50;;;;;;;;;;;;;;;12.93;96.43;97234.16;30001;983;1862;-54
2021/08/31 01:37:21;;;;;;;;;;;;;;;12.95;96.52;97231.94;30001;983;1871;-64
2021/08/31 01:37:52;;;;;;;;;;;;;;;12.93;96.33;97234.16;30001;982;1880;-63
2021/08/31 01:38:23;;;;;;;;;;;;;;;12.92;96.38;97232.53;30001;982;1876;-64
2021/08/31 01:38:55;;;;;;;;;;;;;;;12.92;96.12;97246.16;30001;982;1880;-62
2021/08/31 01:39:26;;;;;;;;;;;;;;;12.92;96.31;97237.97;30001;982;1876;-63
2021/08/31 01:39:57;;;;;;;;;;;;;;;12.91;96.37;97234.44;30001;962;1900;-62
2021/08/31 01:40:28;;;;;;;;;;;;;;;12.91;96.39;97234.44;30001;983;1875;-63
2021/08/31 01:40:59;;;;;;;;;;;;;;;12.89;96.22;97233.13;30001;983;1862;-64
2021/08/31 01:41:29;;;;;;;;;;;;;;;12.88;96.52;97237.78;30001;983;1871;-63
2021/08/31 01:42:00;;;;;;;;;;;;;;;12.88;96.22;97231.50;30001;983;1862;-63
2021/08/31 01:42:31;;;;;;;;;;;;;;;12.87;96.65;97235.34;30001;983;1871;-66
2021/08/31 01:43:02;;;;;;;;;;;;;;;12.86;96.31;97239.97;30001;983;1879;-63
2021/08/31 01:43:33;;;;;;;;;;;;;;;12.86;96.62;97234.53;30001;983;1875;-68
2021/08/31 01:44:04;;;;;;;;;;;;;;;12.87;96.52;97236.16;30001;983;1880;-66
2021/08/31 01:44:35;;;;;;;;;;;;;;;12.87;96.63;97240.78;30001;983;1875;-71
2021/08/31 01:45:07;;;;;;;;;;;;;;;12.91;96.74;97236.38;30001;986;1880;-72
2021/08/31 01:45:41;;;;;;;;;;;;;;;12.93;96.41;97236.88;30001;982;1875;-62
2021/08/31 01:46:12;;;;;;;;;;;;;;;13.01;96.00;97226.09;30001;982;1880;-55
2021/08/31 01:46:43;;;;;;;;;;;;;;;13.02;96.01;97225.00;30001;982;1876;-54
2021/08/31 01:47:14;;;;;;;;;;;;;;;13.00;95.95;97237.31;30001;982;1863;-65
2021/08/31 01:47:45;;;;;;;;;;;;;;;13.01;95.90;97233.47;30001;983;1870;-66
2021/08/31 01:48:16;;;;;;;;;;;;;;;12.99;95.73;97231.03;30001;983;1879;-66
2021/08/31 01:48:47;;;;;;;;;;;;;;;12.98;95.95;97236.78;30001;983;1875;-54
2021/08/31 01:49:18;;;;;;;;;;;;;;;12.97;95.93;97235.19;30001;980;1879;-53
2021/08/31 01:49:49;;;;;;;;;;;;;;;12.97;96.02;97237.91;30001;983;1875;-63
2021/08/31 01:50:20;;;;;;;;;;;;;;;12.94;95.78;97246.66;30001;983;1879;-62
2021/08/31 01:50:51;;;;;;;;;;;;;;;12.93;96.01;97245.03;30001;957;1884;-63
2021/08/31 01:51:22;;;;;;;;;;;;;;;12.91;95.97;97242.63;30001;983;1875;-54
2021/08/31 01:51:53;;;;;;;;;;;;;;;12.91;95.93;97241.81;30001;982;1875;-65
2021/08/31 01:52:24;;;;;;;;;;;;;;;12.91;96.14;97239.91;30001;982;1880;-63
2021/08/31 01:52:55;;;;;;;;;;;;;;;12.91;96.10;97247.25;30001;982;1875;-65
2021/08/31 01:53:29;;;;;;;;;;;;;;;12.93;96.16;97242.31;30001;982;1880;-66
2021/08/31 01:54:00;;;;;;;;;;;;;;;12.93;96.19;97243.13;30001;982;1876;-68
2021/08/31 01:54:31;;;;;;;;;;;;;;;12.95;96.38;97243.66;30001;982;1880;-66
2021/08/31 01:55:03;;;;;;;;;;;;;;;12.98;96.36;97243.03;30001;983;1875;-54
2021/08/31 01:55:34;;;;;;;;;;;;;;;12.99;95.90;97238.41;30001;983;1862;-64
2021/08/31 01:56:05;;;;;;;;;;;;;;;12.96;96.02;97244.44;30001;983;1871;-62
2021/08/31 01:56:36;;;;;;;;;;;;;;;12.95;96.22;97245.56;30001;983;1862;-63
2021/08/31 01:57:07;;;;;;;;;;;;;;;12.95;96.24;97248.28;30001;983;1853;-68
2021/08/31 01:57:38;;;;;;;;;;;;;;;12.96;96.03;97242.53;30001;983;1880;-64
2021/08/31 01:58:09;;;;;;;;;;;;;;;13.01;95.72;97244.38;30001;983;1875;-55
2021/08/31 01:58:40;;;;;;;;;;;;;;;13.02;95.47;97238.62;30001;983;1880;-53
2021/08/31 01:59:10;;;;;;;;;;;;;;;13.00;95.28;97240.03;30001;983;1876;-54
2021/08/31 01:59:41;;;;;;;;;;;;;;;12.99;95.34;97238.41;30001;982;1880;-64
2021/08/31 02:00:12;;;;;;;;;;;;;;;12.97;95.68;97246.06;30001;982;1876;-54
2021/08/31 02:00:43;;;;;;;;;;;;;;;12.97;95.67;97237.91;30001;982;1880;-63
2021/08/31 02:01:14;;;;;;;;;;;;;;;12.95;95.85;97240.13;30001;982;1858;-63
2021/08/31 02:01:45;;;;;;;;;;;;;;;12.92;95.56;97237.97;30001;982;1876;-63
2021/08/31 02:02:16;;;;;;;;;;;;;;;12.92;95.70;97243.44;30001;982;1876;-63
2021/08/31 02:02:47;;;;;;;;;;;;;;;12.89;95.73;97244.84;30001;983;1879;-70
2021/08/31 02:03:18;;;;;;;;;;;;;;;12.91;95.79;97236.38;30001;983;1875;-62
2021/08/31 02:03:49;;;;;;;;;;;;;;;12.91;95.88;97236.38;30001;983;1879;-62
2021/08/31 02:04:19;;;;;;;;;;;;;;;12.89;95.99;97244.03;30001;983;1875;-62
2021/08/31 02:04:50;;;;;;;;;;;;;;;12.87;96.31;97240.78;30001;983;1879;-63
2021/08/31 02:05:21;;;;;;;;;;;;;;;12.86;96.11;97244.63;30001;983;1875;-62
2021/08/31 02:05:52;;;;;;;;;;;;;;;12.84;96.25;97247.63;30001;983;1880;-64
2021/08/31 02:06:23;;;;;;;;;;;;;;;12.85;96.41;97248.44;30001;983;1794;-74
2021/08/31 02:06:54;;;;;;;;;;;;;;;12.87;96.29;97246.25;30001;982;1875;-69
2021/08/31 02:07:25;;;;;;;;;;;;;;;12.90;96.17;97240.19;30001;982;1875;-68
2021/08/31 02:07:55;;;;;;;;;;;;;;;12.91;96.30;97241.81;30001;986;1871;-67
2021/08/31 02:08:26;;;;;;;;;;;;;;;12.92;96.12;97244.25;30001;982;1880;-63
2021/08/31 02:08:57;;;;;;;;;;;;;;;12.91;96.09;97241.81;30001;982;1858;-64
2021/08/31 02:09:28;;;;;;;;;;;;;;;12.92;95.94;97243.44;30001;982;1876;-64
2021/08/31 02:09:59;;;;;;;;;;;;;;;12.91;96.03;97244.53;30001;982;1876;-78
2021/08/31 02:10:30;;;;;;;;;;;;;;;12.91;95.94;97236.38;30001;983;1879;-64
2021/08/31 02:11:01;;;;;;;;;;;;;;;12.90;95.99;97240.19;30001;983;1875;-62
2021/08/31 02:11:31;;;;;;;;;;;;;;;12.89;95.78;97241.31;30001;983;1862;-63
2021/08/31 02:12:03;;;;;;;;;;;;;;;12.86;96.00;97241.91;30001;983;1871;-64
2021/08/31 02:12:33;;;;;;;;;;;;;;;12.85;95.87;97243.00;30001;983;1879;-54
2021/08/31 02:13:04;;;;;;;;;;;;;;;12.84;95.82;97241.37;30001;983;1875;-63
2021/08/31 02:13:35;;;;;;;;;;;;;;;12.83;96.05;97246.03;30001;983;1880;-64
2021/08/31 02:14:06;;;;;;;;;;;;;;;12.82;96.05;97243.63;30001;983;1875;-61
2021/08/31 02:14:37;;;;;;;;;;;;;;;12.82;95.95;97246.34;30001;982;1862;-63
2021/08/31 02:15:09;;;;;;;;;;;;;;;12.80;96.17;97245.84;30001;982;1871;-62
2021/08/31 02:15:40;;;;;;;;;;;;;;;12.80;96.39;97245.84;30001;982;1880;-64
2021/08/31 02:16:11;;;;;;;;;;;;;;;12.79;96.63;97239.59;30001;982;1876;-69
2021/08/31 02:16:41;;;;;;;;;;;;;;;12.83;96.71;97245.22;30001;982;1880;-64
2021/08/31 02:17:12;;;;;;;;;;;;;;;12.84;96.45;97238.66;30001;982;1876;-65
2021/08/31 02:17:43;;;;;;;;;;;;;;;12.85;96.22;97243.00;30001;983;1879;-63
2021/08/31 02:18:14;;;;;;;;;;;;;;;12.84;96.09;97242.19;30001;983;1857;-63
2021/08/31 02:18:45;;;;;;;;;;;;;;;12.84;96.46;97246.84;30001;983;1857;-55
2021/08/31 02:19:16;;;;;;;;;;;;;;;12.87;96.47;97240.78;30001;983;1875;-67
2021/08/31 02:19:46;;;;;;;;;;;;;;;12.87;96.46;97246.25;30001;983;1862;-62
2021/08/31 02:20:17;;;;;;;;;;;;;;;12.86;96.39;97250.06;30001;983;1871;-53
2021/08/31 02:20:48;;;;;;;;;;;;;;;12.84;96.14;97241.37;30001;983;1880;-63
2021/08/31 02:21:19;;;;;;;;;;;;;;;12.82;96.17;97249.84;30001;983;1875;-62
2021/08/31 02:21:50;;;;;;;;;;;;;;;12.82;96.12;97249.06;30001;983;1880;-54
2021/08/31 02:22:21;;;;;;;;;;;;;;;12.81;96.45;97247.47;30001;982;1875;-62
2021/08/31 02:22:52;;;;;;;;;;;;;;;12.80;96.39;97245.84;30001;982;1880;-63
2021/08/31 02:23:23;;;;;;;;;;;;;;;12.79;96.24;97249.66;30001;982;1876;-63
2021/08/31 02:23:54;;;;;;;;;;;;;;;12.79;96.59;97249.66;30001;982;1880;-63
2021/08/31 02:24:24;;;;;;;;;;;;;;;12.77;96.33;97241.00;30001;983;1875;-64
2021/08/31 02:24:55;;;;;;;;;;;;;;;12.77;96.76;97241.78;30001;983;1862;-53
2021/08/31 02:25:26;;;;;;;;;;;;;;;12.77;96.67;97247.25;30001;983;1871;-64
2021/08/31 02:25:57;;;;;;;;;;;;;;;12.77;96.55;97241.00;30001;983;1879;-62
2021/08/31 02:26:31;;;;;;;;;;;;;;;12.75;96.97;97242.09;30001;983;1875;-63
2021/08/31 02:27:02;;;;;;;;;;;;;;;12.77;97.01;97252.69;30001;983;1862;-63
2021/08/31 02:27:33;;;;;;;;;;;;;;;12.74;97.10;97237.75;30001;983;1871;-63
2021/08/31 02:28:04;;;;;;;;;;;;;;;12.74;96.91;97248.66;30001;983;1880;-63
2021/08/31 02:28:35;;;;;;;;;;;;;;;12.73;97.32;97240.78;30001;983;1875;-63
2021/08/31 02:29:06;;;;;;;;;;;;;;;12.73;97.22;97248.94;30001;983;1862;-54
2021/08/31 02:29:36;;;;;;;;;;;;;;;12.71;97.01;97242.97;30001;982;1871;-62
2021/08/31 02:30:08;;;;;;;;;;;;;;;12.71;97.11;97249.25;30001;982;1880;-62
2021/08/31 02:30:38;;;;;;;;;;;;;;;12.70;97.41;97247.63;30001;982;1876;-54
2021/08/31 02:31:11;;;;;;;;;;;;;;;12.70;97.48;97253.06;30001;982;1880;-64
2021/08/31 02:31:42;;;;;;;;;;;;;;;12.69;97.48;97256.91;30001;986;1876;-62
2021/08/31 02:32:13;;;;;;;;;;;;;;;12.69;97.36;97256.91;30001;983;1879;-64
2021/08/31 02:32:48;;;;;;;;;;;;;;;12.68;97.43;97247.09;30001;983;1875;-63
2021/08/31 02:33:19;;;;;;;;;;;;;;;12.68;97.50;97244.38;30001;983;1862;-62
2021/08/31 02:33:50;;;;;;;;;;;;;;;12.68;97.53;97254.47;30001;983;1871;-63
2021/08/31 02:34:20;;;;;;;;;;;;;;;12.67;97.83;97248.22;30001;983;1879;-63
2021/08/31 02:34:51;;;;;;;;;;;;;;;12.67;97.67;97253.66;30001;974;1884;-63
2021/08/31 02:35:22;;;;;;;;;;;;;;;12.66;97.85;97252.03;30001;983;1862;-54
2021/08/31 02:35:54;;;;;;;;;;;;;;;12.66;97.70;97254.75;30001;983;1871;-54
2021/08/31 02:36:25;;;;;;;;;;;;;;;12.65;97.86;97250.41;30001;983;1880;-62
2021/08/31 02:36:56;;;;;;;;;;;;;;;12.66;97.85;97246.59;30001;983;1875;-63
2021/08/31 02:37:27;;;;;;;;;;;;;;;12.65;97.89;97250.41;30001;982;1880;-62
2021/08/31 02:37:59;;;;;;;;;;;;;;;12.65;98.24;97244.97;30001;982;1876;-63
2021/08/31 02:38:29;;;;;;;;;;;;;;;12.64;98.20;97256.16;30001;982;1880;-64
2021/08/31 02:39:00;;;;;;;;;;;;;;;12.66;98.27;97248.50;30001;982;1876;-57
2021/08/31 02:39:31;;;;;;;;;;;;;;;12.69;97.81;97246.00;30001;983;1879;-54
2021/08/31 02:40:03;;;;;;;;;;;;;;;12.70;97.83;97247.63;30001;983;1857;-63
2021/08/31 02:40:34;;;;;;;;;;;;;;;12.68;97.68;97251.75;30001;983;1875;-63
2021/08/31 02:41:05;;;;;;;;;;;;;;;12.68;97.67;97251.75;30001;983;1875;-63
2021/08/31 02:41:36;;;;;;;;;;;;;;;12.67;97.59;97248.22;30001;983;1879;-62
2021/08/31 02:42:07;;;;;;;;;;;;;;;12.65;97.73;97250.41;30001;983;1875;-66
2021/08/31 02:42:41;;;;;;;;;;;;;;;12.67;97.74;97244.69;30001;983;1879;-63
2021/08/31 02:43:12;;;;;;;;;;;;;;;12.67;97.92;97253.66;30001;983;1875;-62
2021/08/31 02:43:43;;;;;;;;;;;;;;;12.66;97.78;97246.59;30001;982;1880;-62
2021/08/31 02:44:13;;;;;;;;;;;;;;;12.66;97.88;97252.03;30001;982;1875;-62
2021/08/31 02:44:44;;;;;;;;;;;;;;;12.66;97.63;97252.03;30001;982;1862;-63
2021/08/31 02:45:15;;;;;;;;;;;;;;;12.66;97.56;97257.47;30001;982;1871;-63
2021/08/31 02:45:46;;;;;;;;;;;;;;;12.67;97.60;97253.66;30001;982;1880;-68
2021/08/31 02:46:19;;;;;;;;;;;;;;;12.67;97.68;97248.22;30001;982;1876;-64
2021/08/31 02:46:50;;;;;;;;;;;;;;;12.68;97.68;97249.81;30001;982;1863;-65